createdAt,value
2023-03-29T00:02:05.250Z,7.54
2023-03-29T00:05:09.320Z,7.52
2023-03-29T00:08:14.466Z,7.53
2023-03-29T00:11:17.215Z,7.53
2023-03-29T00:14:19.813Z,7.60
2023-03-29T00:17:23.997Z,7.44
2023-03-29T00:20:27.017Z,7.46
2023-03-29T00:23:29.726Z,7.47
2023-03-29T00:26:32.207Z,7.47
2023-03-29T00:29:35.048Z,7.35
2023-03-29T00:32:39.018Z,7.39
2023-03-29T00:35:42.526Z,7.53
2023-03-29T00:38:45.244Z,7.60
2023-03-29T00:41:48.113Z,7.64
2023-03-29T00:45:04.044Z,7.65
2023-03-29T00:48:09.155Z,7.71
2023-03-29T00:51:14.248Z,7.66
2023-03-29T00:54:18.651Z,7.65
2023-03-29T00:57:21.784Z,7.68
2023-03-29T01:00:29.709Z,7.76
2023-03-29T01:03:41.441Z,7.77
2023-03-29T01:06:47.939Z,7.74
2023-03-29T01:09:54.486Z,7.73
2023-03-29T01:13:01.466Z,7.59
2023-03-29T01:16:05.002Z,7.70
2023-03-29T01:19:11.535Z,7.74
2023-03-29T01:22:25.878Z,7.68
2023-03-29T01:25:33.335Z,7.74
2023-03-29T01:28:39.945Z,7.63
2023-03-29T01:31:45.623Z,7.57
2023-03-29T01:34:52.077Z,7.59
2023-03-29T01:37:58.364Z,7.64
2023-03-29T01:41:03.353Z,7.63
2023-03-29T01:44:09.280Z,7.57
2023-03-29T01:47:16.290Z,7.49
2023-03-29T01:50:20.942Z,7.51
2023-03-29T01:53:28.371Z,7.57
2023-03-29T01:56:32.070Z,7.52
2023-03-29T01:59:36.084Z,7.36
2023-03-29T02:02:40.218Z,7.22
2023-03-29T02:05:43.342Z,7.21
2023-03-29T02:08:46.591Z,7.23
2023-03-29T02:11:49.706Z,7.26
2023-03-29T02:14:53.931Z,7.27
2023-03-29T02:17:56.836Z,7.31
2023-03-29T02:21:00.194Z,7.28
2023-03-29T02:24:04.910Z,7.25
2023-03-29T02:27:07.658Z,7.33
2023-03-29T02:30:13.638Z,7.47
2023-03-29T02:33:19.206Z,7.49
2023-03-29T02:36:24.175Z,7.48
2023-03-29T02:39:27.877Z,7.52
2023-03-29T02:42:30.383Z,7.50
2023-03-29T02:45:34.641Z,7.29
2023-03-29T02:48:38.562Z,7.23
2023-03-29T02:51:41.177Z,7.11
2023-03-29T02:54:45.262Z,6.87
2023-03-29T02:57:47.794Z,6.56
2023-03-29T03:00:51.710Z,6.37
2023-03-29T03:03:54.367Z,6.20
2023-03-29T03:06:57.029Z,6.09
2023-03-29T03:09:59.560Z,6.15
2023-03-29T03:13:02.540Z,6.26
2023-03-29T03:16:07.955Z,6.38
2023-03-29T03:19:11.374Z,6.71
2023-03-29T03:22:14.902Z,6.95
2023-03-29T03:25:19.387Z,7.20
2023-03-29T03:28:24.133Z,7.38
2023-03-29T03:31:28.449Z,7.55
2023-03-29T03:34:31.030Z,7.77
2023-03-29T03:37:33.577Z,8.07
2023-03-29T03:40:36.069Z,8.23
2023-03-29T03:43:41.137Z,8.30
2023-03-29T03:46:45.056Z,8.29
2023-03-29T03:49:47.550Z,8.25
2023-03-29T03:52:50.121Z,8.25
2023-03-29T03:55:54.188Z,8.29
2023-03-29T03:58:56.716Z,8.29
2023-03-29T04:02:01.409Z,8.29
2023-03-29T04:05:04.210Z,8.26
2023-03-29T04:08:07.390Z,8.27
2023-03-29T04:11:10.519Z,8.32
2023-03-29T04:14:13.171Z,8.38
2023-03-29T04:17:17.054Z,8.52
2023-03-29T04:20:19.610Z,8.62
2023-03-29T04:23:22.168Z,8.74
2023-03-29T04:26:24.732Z,8.93
2023-03-29T04:29:27.411Z,8.99
2023-03-29T04:32:31.275Z,9.10
2023-03-29T04:35:34.269Z,9.22
2023-03-29T04:38:37.879Z,9.37
2023-03-29T04:41:41.118Z,9.29
2023-03-29T04:44:43.806Z,9.47
2023-03-29T04:47:47.719Z,9.47
2023-03-29T04:50:50.628Z,9.53
2023-03-29T04:53:53.209Z,9.63
2023-03-29T04:56:56.659Z,9.68
2023-03-29T04:59:59.298Z,9.72
2023-03-29T05:03:04.422Z,9.82
2023-03-29T05:06:08.734Z,9.87
2023-03-29T05:09:11.421Z,9.89
2023-03-29T05:12:14.075Z,9.87
2023-03-29T05:15:17.102Z,9.90
2023-03-29T05:18:21.093Z,10.00
2023-03-29T05:21:23.978Z,10.07
2023-03-29T05:24:26.632Z,10.03
2023-03-29T05:27:29.748Z,10.13
2023-03-29T05:30:32.696Z,10.18
2023-03-29T05:33:36.969Z,10.20
2023-03-29T05:36:39.793Z,10.36
2023-03-29T05:39:43.029Z,10.40
2023-03-29T05:42:45.708Z,10.33
2023-03-29T05:45:48.618Z,10.46
2023-03-29T05:48:52.560Z,10.51
2023-03-29T05:51:56.956Z,10.50
2023-03-29T05:54:59.512Z,10.45
2023-03-29T05:58:03.727Z,10.45
2023-03-29T06:01:12.619Z,10.63
2023-03-29T06:04:17.935Z,10.69
2023-03-29T06:07:20.864Z,10.75
2023-03-29T06:10:24.705Z,10.72
2023-03-29T06:13:27.803Z,10.93
2023-03-29T06:16:30.664Z,11.08
2023-03-29T06:19:34.707Z,11.10
2023-03-29T06:22:37.572Z,11.25
2023-03-29T06:25:40.481Z,11.35
2023-03-29T06:28:43.172Z,11.41
2023-03-29T06:31:46.018Z,11.62
2023-03-29T06:34:50.950Z,11.79
2023-03-29T06:37:54.413Z,11.94
2023-03-29T06:41:02.181Z,12.16
2023-03-29T06:44:05.124Z,12.20
2023-03-29T06:47:08.259Z,12.28
2023-03-29T06:50:14.582Z,12.42
2023-03-29T06:53:17.281Z,12.59
2023-03-29T06:56:19.825Z,12.68
2023-03-29T06:59:22.317Z,12.80
2023-03-29T07:02:24.928Z,12.87
2023-03-29T07:05:29.487Z,13.15
2023-03-29T07:08:32.324Z,13.07
2023-03-29T07:11:35.317Z,13.25
2023-03-29T07:14:37.985Z,13.40
2023-03-29T07:17:40.565Z,13.54
2023-03-29T07:20:44.636Z,13.61
2023-03-29T07:23:47.172Z,13.77
2023-03-29T07:27:03.515Z,13.81
2023-03-29T07:30:11.155Z,13.90
2023-03-29T07:33:14.253Z,14.00
2023-03-29T07:36:18.436Z,14.16
2023-03-29T07:39:22.270Z,14.29
2023-03-29T07:42:24.818Z,14.30
2023-03-29T07:45:29.067Z,14.36
2023-03-29T07:48:32.374Z,14.66
2023-03-29T07:51:37.008Z,15.02
2023-03-29T07:54:39.671Z,15.19
2023-03-29T07:57:43.683Z,15.40
2023-03-29T08:00:46.512Z,15.47
2023-03-29T08:03:49.232Z,15.18
2023-03-29T08:06:54.209Z,15.48
2023-03-29T08:09:57.369Z,15.63
2023-03-29T08:13:00.164Z,16.00
2023-03-29T08:16:03.374Z,16.56
2023-03-29T08:19:07.081Z,16.91
2023-03-29T08:22:10.946Z,16.93
2023-03-29T08:25:13.610Z,17.08
2023-03-29T08:28:16.094Z,16.72
2023-03-29T08:31:18.742Z,16.46
2023-03-29T08:34:21.366Z,16.09
2023-03-29T08:37:25.952Z,16.06
2023-03-29T08:40:30.129Z,16.05
2023-03-29T08:43:53.132Z,16.17
2023-03-29T08:47:02.048Z,15.94
2023-03-29T08:50:05.635Z,15.36
2023-03-29T08:53:10.092Z,15.43
2023-03-29T08:56:14.723Z,15.70
2023-03-29T08:59:20.582Z,16.01
2023-03-29T09:02:26.161Z,16.34
2023-03-29T09:05:31.165Z,16.63
2023-03-29T09:08:36.670Z,16.88
2023-03-29T09:11:58.248Z,16.22
2023-03-29T09:15:09.957Z,16.86
2023-03-29T09:18:15.619Z,16.93
2023-03-29T09:21:22.301Z,17.44
2023-03-29T09:24:38.818Z,17.41
2023-03-29T09:27:48.718Z,17.66
2023-03-29T09:30:56.426Z,17.54
2023-03-29T09:34:00.204Z,18.20
2023-03-29T09:37:04.852Z,18.74
2023-03-29T09:40:12.611Z,18.77
2023-03-29T09:43:18.313Z,18.62
2023-03-29T09:46:24.038Z,18.68
2023-03-29T09:49:29.761Z,18.84
2023-03-29T09:52:33.063Z,19.12
2023-03-29T09:55:39.526Z,19.48
2023-03-29T09:58:43.589Z,19.39
2023-03-29T10:01:46.499Z,19.29
2023-03-29T10:04:55.195Z,20.17
2023-03-29T10:08:01.085Z,19.86
2023-03-29T10:11:10.495Z,19.12
2023-03-29T10:14:16.156Z,19.65
2023-03-29T10:17:21.800Z,19.91
2023-03-29T10:20:25.753Z,20.99
2023-03-29T10:23:32.468Z,20.21
2023-03-29T10:26:38.996Z,19.82
2023-03-29T10:29:43.028Z,19.93
2023-03-29T10:32:46.237Z,20.86
2023-03-29T10:35:49.366Z,20.64
2023-03-29T10:38:52.629Z,20.93
2023-03-29T10:41:57.064Z,20.48
2023-03-29T10:45:00.616Z,20.27
2023-03-29T10:48:06.840Z,19.58
2023-03-29T10:51:09.427Z,19.62
2023-03-29T10:54:14.807Z,20.35
2023-03-29T10:57:24.589Z,20.99
2023-03-29T11:00:33.618Z,19.97
2023-03-29T11:03:55.969Z,20.01
2023-03-29T11:07:14.147Z,20.59
2023-03-29T11:10:28.350Z,21.16
2023-03-29T11:13:38.324Z,20.52
2023-03-29T11:16:45.681Z,20.13
2023-03-29T11:20:01.927Z,19.91
2023-03-29T11:23:16.449Z,19.97
2023-03-29T11:26:22.783Z,19.91
2023-03-29T11:29:29.631Z,19.51
2023-03-29T11:32:37.212Z,20.48
2023-03-29T11:35:44.763Z,20.55
2023-03-29T11:38:54.253Z,20.18
2023-03-29T11:42:01.519Z,21.04
2023-03-29T11:45:07.866Z,22.11
2023-03-29T11:48:16.538Z,22.83
2023-03-29T11:51:22.553Z,22.71
2023-03-29T11:54:29.405Z,22.45
2023-03-29T11:57:33.161Z,21.80
2023-03-29T12:00:39.452Z,21.42
2023-03-29T12:03:47.192Z,21.59
2023-03-29T12:06:54.301Z,22.73
2023-03-29T12:10:00.415Z,23.80
2023-03-29T12:13:05.700Z,24.45
2023-03-29T12:16:14.907Z,24.67
2023-03-29T12:19:20.567Z,25.01
2023-03-29T12:22:23.482Z,23.73
2023-03-29T12:25:29.412Z,22.81
2023-03-29T12:28:50.577Z,21.03
2023-03-29T12:32:02.559Z,22.38
2023-03-29T12:35:19.608Z,21.78
2023-03-29T12:38:23.755Z,21.65
2023-03-29T12:41:26.544Z,21.46
2023-03-29T12:44:29.278Z,21.60
2023-03-29T12:47:39.616Z,20.34
2023-03-29T12:50:46.866Z,19.98
2023-03-29T12:53:51.602Z,20.22
2023-03-29T12:56:58.226Z,20.13
2023-03-29T13:00:11.893Z,20.73
2023-03-29T13:03:23.242Z,20.61
2023-03-29T13:06:32.173Z,21.20
2023-03-29T13:09:37.514Z,19.81
2023-03-29T13:12:42.273Z,20.01
2023-03-29T13:15:45.751Z,20.38
2023-03-29T13:19:01.342Z,20.58
2023-03-29T13:22:12.927Z,20.98
2023-03-29T13:25:24.235Z,21.73
2023-03-29T13:28:31.196Z,21.37
2023-03-29T13:31:39.245Z,20.84
2023-03-29T13:34:47.530Z,20.26
2023-03-29T13:37:59.458Z,19.33
2023-03-29T13:41:04.167Z,19.41
2023-03-29T13:44:19.312Z,19.78
2023-03-29T13:47:43.159Z,19.63
2023-03-29T13:50:56.525Z,18.65
2023-03-29T13:54:02.862Z,18.31
2023-03-29T13:57:11.116Z,18.09
2023-03-29T14:00:18.165Z,17.69
2023-03-29T14:03:26.211Z,17.30
2023-03-29T14:06:32.884Z,16.06
2023-03-29T14:09:39.881Z,14.87
2023-03-29T14:12:42.436Z,14.67
2023-03-29T14:15:46.888Z,14.99
2023-03-29T14:18:51.410Z,15.10
2023-03-29T14:21:55.477Z,16.25
2023-03-29T14:25:02.491Z,16.58
2023-03-29T14:28:14.103Z,16.50
2023-03-29T14:31:20.530Z,17.18
2023-03-29T14:34:24.016Z,17.79
2023-03-29T14:37:29.691Z,17.86
2023-03-29T14:40:33.914Z,18.09
2023-03-29T14:43:36.496Z,18.46
2023-03-29T14:46:39.309Z,18.64
2023-03-29T14:49:41.881Z,19.25
2023-03-29T14:52:47.583Z,19.55
2023-03-29T14:55:52.857Z,19.88
2023-03-29T14:58:56.628Z,20.81
2023-03-29T15:01:59.267Z,20.99
2023-03-29T15:05:04.689Z,21.18
2023-03-29T15:08:13.667Z,21.58
2023-03-29T15:11:20.069Z,21.34
2023-03-29T15:14:23.603Z,20.61
2023-03-29T15:17:43.179Z,19.97
2023-03-29T15:20:52.589Z,20.53
2023-03-29T15:23:58.318Z,20.85
2023-03-29T15:27:03.366Z,20.74
2023-03-29T15:30:13.387Z,20.23
2023-03-29T15:33:17.767Z,21.00
2023-03-29T15:36:20.440Z,24.69
2023-03-29T15:39:24.725Z,25.63
2023-03-29T15:42:27.486Z,24.90
2023-03-29T15:45:30.109Z,24.50
2023-03-29T15:48:33.626Z,24.24
2023-03-29T15:51:36.401Z,24.95
2023-03-29T15:54:40.403Z,25.92
2023-03-29T15:57:44.722Z,25.18
2023-03-29T16:00:50.876Z,24.19
2023-03-29T16:03:53.668Z,22.34
2023-03-29T16:06:57.650Z,21.30
2023-03-29T16:10:01.643Z,20.45
2023-03-29T16:13:04.392Z,19.78
2023-03-29T16:16:08.442Z,19.05
2023-03-29T16:19:11.161Z,18.58
2023-03-29T16:22:13.763Z,18.63
2023-03-29T16:25:19.980Z,18.70
2023-03-29T16:28:22.889Z,19.06
2023-03-29T16:31:27.029Z,19.29
2023-03-29T16:34:30.059Z,19.00
2023-03-29T16:37:32.844Z,18.61
2023-03-29T16:40:37.185Z,18.40
2023-03-29T16:43:39.732Z,18.20
2023-03-29T16:46:42.531Z,17.94
2023-03-29T16:49:48.526Z,17.64
2023-03-29T16:52:52.851Z,17.52
2023-03-29T16:55:56.849Z,17.43
2023-03-29T16:58:59.409Z,17.36
2023-03-29T17:02:01.872Z,17.23
2023-03-29T17:05:06.016Z,17.00
2023-03-29T17:08:10.026Z,16.87
2023-03-29T17:11:15.512Z,16.82
2023-03-29T17:14:18.080Z,16.68
2023-03-29T17:17:20.662Z,16.66
2023-03-29T17:20:23.178Z,16.70
2023-03-29T17:23:26.612Z,16.60
2023-03-29T17:26:30.451Z,16.50
2023-03-29T17:29:33.497Z,16.47
2023-03-29T17:32:36.738Z,16.45
2023-03-29T17:35:39.685Z,16.42
2023-03-29T17:38:43.043Z,16.33
2023-03-29T17:41:47.622Z,16.18
2023-03-29T17:44:51.034Z,16.04
2023-03-29T17:47:53.524Z,15.92
2023-03-29T17:50:57.832Z,15.77
2023-03-29T17:54:01.597Z,15.69
2023-03-29T17:57:05.764Z,15.50
2023-03-29T18:00:12.129Z,15.50
2023-03-29T18:03:14.780Z,15.45
2023-03-29T18:06:20.206Z,15.43
2023-03-29T18:09:22.899Z,15.50
2023-03-29T18:12:27.085Z,15.56
2023-03-29T18:15:29.689Z,15.50
2023-03-29T18:18:32.726Z,15.47
2023-03-29T18:21:35.257Z,15.37
2023-03-29T18:24:37.890Z,15.32
2023-03-29T18:27:41.767Z,15.35
2023-03-29T18:30:44.577Z,15.39
2023-03-29T18:33:47.510Z,15.46
2023-03-29T18:36:50.791Z,15.42
2023-03-29T18:39:53.300Z,15.29
2023-03-29T18:42:57.284Z,15.13
2023-03-29T18:45:59.994Z,15.04
2023-03-29T18:49:03.110Z,15.05
2023-03-29T18:52:05.811Z,15.02
2023-03-29T18:55:10.236Z,14.99
2023-03-29T18:58:15.651Z,15.02
2023-03-29T19:01:18.297Z,15.16
2023-03-29T19:04:20.969Z,15.18
2023-03-29T19:07:23.767Z,15.20
2023-03-29T19:10:27.349Z,15.27
2023-03-29T19:13:31.226Z,15.40
2023-03-29T19:16:33.964Z,15.49
2023-03-29T19:19:37.765Z,15.44
2023-03-29T19:22:40.412Z,15.40
2023-03-29T19:28:47.184Z,15.19
2023-03-29T19:31:51.806Z,15.06
2023-03-29T19:34:54.332Z,14.91
2023-03-29T19:37:56.837Z,14.83
2023-03-29T19:40:59.531Z,14.88
2023-03-29T19:44:03.723Z,14.88
2023-03-29T19:47:06.438Z,14.76
2023-03-29T19:50:12.301Z,14.63
2023-03-29T19:53:14.997Z,14.53
2023-03-29T19:56:17.869Z,14.48
2023-03-29T19:59:21.765Z,14.40
2023-03-29T20:02:24.319Z,14.37
2023-03-29T20:05:27.292Z,14.35
2023-03-29T20:08:29.918Z,14.29
2023-03-29T20:11:32.519Z,14.28
2023-03-29T20:14:40.112Z,14.28
2023-03-29T20:17:42.815Z,14.31
2023-03-29T20:20:46.815Z,14.30
2023-03-29T20:23:49.395Z,14.43
2023-03-29T20:26:51.926Z,14.42
2023-03-29T20:29:55.935Z,14.40
2023-03-29T20:32:58.514Z,14.38
2023-03-29T20:36:01.386Z,14.38
2023-03-29T20:39:04.964Z,14.39
2023-03-29T20:42:07.458Z,14.51
2023-03-29T20:45:18.579Z,14.36
2023-03-29T20:48:23.093Z,14.25
2023-03-29T20:51:28.062Z,14.21
2023-03-29T20:54:33.199Z,14.16
2023-03-29T20:57:36.727Z,14.15
2023-03-29T21:00:40.639Z,14.04
2023-03-29T21:03:43.273Z,13.98
2023-03-29T21:06:49.571Z,14.02
2023-03-29T21:09:52.129Z,13.98
2023-03-29T21:13:00.022Z,13.95
2023-03-29T21:16:03.972Z,14.06
2023-03-29T21:19:06.558Z,14.01
2023-03-29T21:22:09.101Z,14.03
2023-03-29T21:25:15.505Z,14.03
2023-03-29T21:28:18.128Z,14.09
2023-03-29T21:31:22.074Z,14.18
2023-03-29T21:34:24.633Z,14.43
2023-03-29T21:37:27.405Z,14.59
2023-03-29T21:40:29.953Z,14.63
2023-03-29T21:43:32.682Z,14.72
2023-03-29T21:46:36.769Z,14.80
2023-03-29T21:49:39.630Z,15.31
2023-03-29T21:52:42.228Z,15.34
2023-03-29T21:55:44.858Z,15.64
2023-03-29T21:58:47.423Z,15.82
2023-03-29T22:01:51.280Z,16.09
2023-03-29T22:04:53.851Z,16.17
2023-03-29T22:07:58.700Z,16.41
2023-03-29T22:11:08.048Z,16.34
2023-03-29T22:14:10.931Z,16.46
2023-03-29T22:17:15.945Z,16.36
2023-03-29T22:20:18.958Z,16.51
2023-03-29T22:23:21.571Z,16.54
2023-03-29T22:26:27.397Z,16.58
2023-03-29T22:29:30.061Z,16.67
2023-03-29T22:32:33.913Z,16.75
2023-03-29T22:35:36.904Z,16.73
2023-03-29T22:38:39.461Z,16.76
2023-03-29T22:41:42.289Z,16.80
2023-03-29T22:44:44.797Z,16.80
2023-03-29T22:47:48.704Z,16.89
2023-03-29T22:50:51.286Z,16.93
2023-03-29T22:53:54.056Z,16.89
2023-03-29T22:56:57.568Z,17.00
2023-03-29T23:00:00.034Z,17.11
2023-03-29T23:03:04.020Z,17.00
2023-03-29T23:06:07.113Z,17.10
2023-03-29T23:09:10.283Z,17.01
2023-03-29T23:12:12.833Z,16.97
2023-03-29T23:15:16.046Z,16.88
2023-03-29T23:18:21.109Z,16.93
2023-03-29T23:21:23.796Z,16.97
2023-03-29T23:24:26.574Z,16.94
2023-03-29T23:27:29.414Z,16.93
2023-03-29T23:30:31.972Z,16.90
2023-03-29T23:33:38.506Z,17.06
2023-03-29T23:36:41.116Z,17.16
2023-03-29T23:39:43.688Z,17.13
2023-03-29T23:42:48.340Z,16.99
2023-03-29T23:45:56.654Z,17.13
2023-03-29T23:49:00.530Z,17.13
2023-03-29T23:52:03.168Z,17.01
2023-03-29T23:55:06.644Z,17.07
2023-03-29T23:58:09.152Z,16.99
